Terminal Aerodrome Forecast
Issued by NWS

Home | Current Version | Previous Version | Text Only | Print | Product List | Glossary On
Versions: 1 2 3 4 5 6 7 8 9 10 11 12 13
709
FTUS46 KMTR 220601 RRA
TAFMRY
TAF
KMRY 220601Z 2206/2306 20005KT P6SM BKN030 BKN050
     FM221200 27006KT P6SM BKN050
     FM222000 27010KT P6SM BKN050
     FM230400 24005KT P6SM SCT030=

USA.gov is the U.S. government's official web portal to all federal, state and local government web resources and services.